Time;durP1;ratioP1;P1;durP2;ratioP2;P2;SDS_P1;SDS_P2;PMS_P1;PMS_P2;Temp;Humidity;BMP_temperature;BMP_pressure;BME280_temperature;BME280_humidity;BME280_pressure;Samples;Min_cycle;Max_cycle;Signal;HPM_P1;HPM_P2
2021/10/28 00:12:15;;;;;;;;;18.00;17.00;;;;;13.53;57.40;101451.13;5102247;27;45518;-61
2021/10/28 00:14:43;;;;;;;;;19.50;17.50;;;;;13.51;57.68;101447.66;5102245;27;45362;-61
2021/10/28 00:17:11;;;;;;;;;19.00;17.25;;;;;13.50;57.54;101440.63;5101714;27;45657;-61
2021/10/28 00:19:38;;;;;;;;;15.00;15.00;;;;;13.45;57.92;101431.91;5101496;27;45738;-61
2021/10/28 00:22:04;;;;;;;;;19.25;18.00;;;;;13.45;57.95;101431.91;5101534;27;48251;-61
2021/10/28 00:24:29;;;;;;;;;17.00;15.00;;;;;13.43;57.85;101428.41;5102720;27;45354;-61
2021/10/28 00:26:55;;;;;;;;;18.75;17.25;;;;;13.42;57.81;101427.56;5103314;27;45365;-61
2021/10/28 00:29:23;;;;;;;;;18.75;17.00;;;;;13.38;57.71;101414.41;5103085;27;45467;-61
2021/10/28 00:31:49;;;;;;;;;17.50;17.50;;;;;13.35;57.95;101409.16;5090466;27;46151;-61
2021/10/28 00:34:16;;;;;;;;;16.25;16.00;;;;;13.36;57.68;101416.16;5082295;27;45319;-61
2021/10/28 00:36:45;;;;;;;;;16.75;14.50;;;;;13.33;57.77;101411.78;5082845;27;45359;-61
2021/10/28 00:39:11;;;;;;;;;13.50;12.50;;;;;13.32;57.97;101416.22;5081322;27;45533;-61
2021/10/28 00:41:38;;;;;;;;;14.00;12.75;;;;;13.31;57.87;101410.97;5082749;27;45218;-61
2021/10/28 00:44:05;;;;;;;;;18.75;17.50;;;;;13.30;57.70;101411.84;5082580;27;45266;-61
2021/10/28 00:46:34;;;;;;;;;16.25;16.25;;;;;13.27;58.13;101406.59;5082388;28;45456;-61
2021/10/28 00:49:01;;;;;;;;;20.00;16.50;;;;;13.24;57.74;101399.59;5082321;27;45489;-61
2021/10/28 00:51:28;;;;;;;;;16.75;14.75;;;;;13.22;57.99;101401.41;5095895;27;45451;-61
2021/10/28 00:53:55;;;;;;;;;17.75;17.00;;;;;13.21;58.00;101396.16;5082486;27;45365;-61
2021/10/28 00:56:22;;;;;;;;;20.00;19.25;;;;;13.19;57.93;101396.16;5082441;27;45330;-61
2021/10/28 00:58:48;;;;;;;;;17.75;16.25;;;;;13.21;58.15;101390.91;5082330;27;45339;-61
2021/10/28 01:01:14;;;;;;;;;19.00;17.50;;;;;13.19;58.23;101387.41;5081939;27;46322;-61
2021/10/28 01:03:40;;;;;;;;;16.75;15.25;;;;;13.14;57.84;101380.44;5082418;27;45200;-62
2021/10/28 01:06:08;;;;;;;;;17.00;16.75;;;;;13.17;57.86;101392.69;5082247;27;45244;-61
2021/10/28 01:08:37;;;;;;;;;21.25;17.00;;;;;13.14;58.08;101380.44;5082269;27;45251;-61
2021/10/28 01:11:03;;;;;;;;;20.50;18.50;;;;;13.13;58.14;101381.31;5081006;27;46244;-61
2021/10/28 01:13:28;;;;;;;;;20.25;19.25;;;;;13.13;58.02;101378.69;5082028;27;45299;-61
2021/10/28 01:15:55;;;;;;;;;16.50;14.00;;;;;13.11;58.21;101375.19;5082016;27;45238;-61
2021/10/28 01:18:22;;;;;;;;;17.75;17.75;;;;;13.10;58.21;101380.47;5082116;27;45235;-61
2021/10/28 01:20:52;;;;;;;;;18.25;15.75;;;;;13.08;58.18;101372.59;5081653;27;47122;-61
2021/10/28 01:23:21;;;;;;;;;17.25;16.25;;;;;13.06;58.11;101373.50;5081905;27;45272;-61
2021/10/28 01:25:59;;;;;;;;;18.50;18.25;;;;;13.07;57.96;101377.88;5081840;27;45390;-61
2021/10/28 01:28:29;;;;;;;;;19.00;17.25;;;;;13.02;58.35;101364.75;5081725;27;45366;-61
2021/10/28 01:30:57;;;;;;;;;22.00;16.50;;;;;13.03;58.24;101376.19;5094853;27;47299;-61
2021/10/28 01:33:23;;;;;;;;;14.00;12.25;;;;;12.99;58.33;101370.97;5081698;27;45527;-61
2021/10/28 01:35:49;;;;;;;;;21.25;19.25;;;;;12.97;58.19;101371.88;5081750;27;45494;-62
2021/10/28 01:38:16;;;;;;;;;19.25;19.00;;;;;12.97;58.42;101374.53;5081828;27;45256;-62
2021/10/28 01:40:42;;;;;;;;;20.00;16.75;;;;;12.94;58.03;101370.16;5081539;27;45460;-61
2021/10/28 01:43:08;;;;;;;;;18.25;18.25;;;;;12.91;58.17;101367.53;5081461;27;45369;-61
2021/10/28 01:45:33;;;;;;;;;18.00;18.00;;;;;12.88;58.31;101358.81;5081424;27;45401;-61
2021/10/28 01:48:00;;;;;;;;;18.25;16.75;;;;;12.85;58.06;101359.72;5081387;27;45240;-61
2021/10/28 01:50:28;;;;;;;;;19.50;15.00;;;;;12.82;58.19;101368.53;5087800;27;45291;-61
2021/10/28 01:52:54;;;;;;;;;24.75;17.75;;;;;12.75;58.40;101356.31;5088376;27;45373;-61
2021/10/28 01:55:20;;;;;;;;;15.25;15.00;;;;;12.74;58.53;101356.34;5081413;27;45334;-61
2021/10/28 01:57:46;;;;;;;;;16.25;16.25;;;;;12.71;58.59;101357.25;5081464;27;45313;-61
2021/10/28 02:00:14;;;;;;;;;17.25;16.00;;;;;12.68;58.33;101346.78;5081246;27;45374;-61
2021/10/28 02:02:41;;;;;;;;;19.25;15.50;;;;;12.66;58.46;101351.19;5081367;27;45215;-61
2021/10/28 02:05:11;;;;;;;;;21.00;19.25;;;;;12.62;58.66;101352.97;5081191;27;45228;-61
2021/10/28 02:07:37;;;;;;;;;18.00;17.00;;;;;12.60;58.58;101346.00;5081081;27;45553;-61
2021/10/28 02:10:07;;;;;;;;;16.25;16.25;;;;;12.57;58.63;101343.41;5081110;27;45307;-61
2021/10/28 02:12:33;;;;;;;;;20.25;17.75;;;;;12.56;58.54;101334.59;5081137;27;45308;-61
2021/10/28 02:14:58;;;;;;;;;15.50;13.75;;;;;12.53;58.34;101334.66;5081206;27;45501;-61
2021/10/28 02:17:24;;;;;;;;;18.50;18.50;;;;;12.49;58.80;101333.81;5080958;27;45328;-61
2021/10/28 02:19:50;;;;;;;;;19.50;19.00;;;;;12.44;58.75;101326.84;5080695;27;46509;-61
2021/10/28 02:22:16;;;;;;;;;22.50;18.75;;;;;12.42;58.59;101326.88;5080817;27;45339;-61
2021/10/28 02:24:41;;;;;;;;;21.50;18.75;;;;;12.39;58.73;101326.94;5081111;27;45387;-60
2021/10/28 02:27:07;;;;;;;;;19.75;17.25;;;;;12.35;58.71;101317.28;5080806;27;45379;-61
2021/10/28 02:29:32;;;;;;;;;19.25;17.50;;;;;12.33;58.65;101305.91;5086678;27;45348;-61
2021/10/28 02:31:58;;;;;;;;;20.00;20.00;;;;;12.32;58.63;101309.44;5087392;27;45264;-61
2021/10/28 02:34:23;;;;;;;;;17.25;16.00;;;;;12.29;58.78;101309.47;5079572;28;45837;-60
2021/10/28 02:36:48;;;;;;;;;15.00;14.50;;;;;12.27;58.78;101301.56;5080835;27;46550;-61
2021/10/28 02:39:14;;;;;;;;;17.50;17.50;;;;;12.25;58.63;101305.13;5080756;27;46010;-61
2021/10/28 02:41:40;;;;;;;;;16.25;16.25;;;;;12.23;58.84;101305.16;5080793;27;45196;-61
2021/10/28 02:44:05;;;;;;;;;21.75;19.50;;;;;12.21;58.96;101301.66;5080844;27;45247;-61
2021/10/28 02:46:31;;;;;;;;;20.00;17.00;;;;;12.15;58.61;101297.34;5080671;27;45296;-61
2021/10/28 02:48:56;;;;;;;;;21.00;19.25;;;;;12.15;58.73;101302.63;5080407;27;45333;-60
2021/10/28 02:51:22;;;;;;;;;15.00;15.00;;;;;12.14;58.63;101306.13;5094222;27;45168;-61
2021/10/28 02:53:47;;;;;;;;;14.50;14.50;;;;;12.11;58.95;101305.28;5080881;27;45219;-60
2021/10/28 02:56:13;;;;;;;;;14.75;13.50;;;;;12.07;58.90;101300.97;5080508;27;45586;-62
2021/10/28 02:58:38;;;;;;;;;18.00;15.50;;;;;12.03;58.80;101287.81;5080408;27;45458;-61
2021/10/28 03:01:04;;;;;;;;;20.50;17.50;;;;;12.01;58.86;101288.72;5080370;27;45212;-60
2021/10/28 03:03:30;;;;;;;;;18.25;15.25;;;;;11.95;58.83;101288.75;5080576;27;45272;-61
2021/10/28 03:05:55;;;;;;;;;17.50;15.75;;;;;11.92;59.13;101286.16;5080311;27;45539;-61
2021/10/28 03:08:21;;;;;;;;;19.00;17.75;;;;;11.88;58.87;101282.69;5081441;27;45310;-60
2021/10/28 03:10:46;;;;;;;;;13.75;12.50;;;;;11.87;59.04;101288.84;5098109;27;45383;-61
2021/10/28 03:13:15;;;;;;;;;19.50;18.00;;;;;11.84;59.01;101283.63;5099657;27;45324;-60
2021/10/28 03:15:41;;;;;;;;;14.75;13.00;;;;;11.80;59.01;101280.13;5098499;27;45399;-60
2021/10/28 03:19:17;;;;;;;;;20.25;17.75;;;;;11.79;58.88;101275.75;5078528;27;45466;-60
2021/10/28 03:26:27;;;;;;;;;18.00;15.00;;;;;11.70;59.03;101265.34;5079772;28;45315;-60
2021/10/28 03:28:52;;;;;;;;;18.00;16.25;;;;;11.69;59.08;101272.34;5080878;27;46282;-60
2021/10/28 03:31:18;;;;;;;;;17.50;16.50;;;;;11.68;58.89;101261.84;5090426;27;45319;-60
2021/10/28 03:33:47;;;;;;;;;17.00;14.25;;;;;11.64;59.21;101257.50;5081879;27;45298;-60
2021/10/28 03:36:19;;;;;;;;;14.75;14.00;;;;;11.65;58.99;101253.97;5083309;27;45426;-60
2021/10/28 03:39:00;;;;;;;;;17.00;16.75;;;;;11.64;59.07;101253.09;5083229;27;45302;-61
2021/10/28 03:41:49;;;;;;;;;19.75;19.75;;;;;11.63;59.01;101248.72;5081923;27;45655;-61
2021/10/28 04:16:24;;;;;;;;;15.25;13.50;;;;;11.52;59.15;101234.78;5103551;27;45244;-60
2021/10/28 04:30:16;;;;;;;;;16.25;14.50;;;;;11.38;59.06;101234.94;5102854;27;45514;-59
2021/10/28 04:32:42;;;;;;;;;19.00;18.00;;;;;11.40;59.16;101237.56;5082772;27;45399;-60
2021/10/28 04:35:09;;;;;;;;;18.00;16.50;;;;;11.38;59.20;101233.19;5082501;27;45356;-60
2021/10/28 04:37:38;;;;;;;;;18.75;17.00;;;;;11.38;59.26;101233.19;5082943;27;45173;-60
2021/10/28 04:40:07;;;;;;;;;17.25;17.25;;;;;11.38;59.28;101237.56;5082428;27;45237;-60
2021/10/28 04:42:33;;;;;;;;;20.00;17.50;;;;;11.36;59.33;101234.94;5082388;27;47090;-60
2021/10/28 04:44:58;;;;;;;;;13.25;13.25;;;;;11.35;59.28;101238.47;5081157;27;45655;-60
2021/10/28 04:47:24;;;;;;;;;17.00;16.25;;;;;11.33;59.41;101236.72;5082638;27;45245;-60
2021/10/28 04:49:49;;;;;;;;;18.00;16.50;;;;;11.31;59.31;101242.00;5083527;27;45322;-60
2021/10/28 04:52:14;;;;;;;;;23.75;17.00;;;;;11.30;59.41;101242.03;5094917;27;46050;-60
2021/10/28 04:54:40;;;;;;;;;24.25;18.75;;;;;11.27;59.48;101237.69;5082495;27;45306;-60
2021/10/28 04:57:06;;;;;;;;;14.25;13.75;;;;;11.24;59.31;101236.81;5082430;27;45524;-60
2021/10/28 04:59:32;;;;;;;;;17.75;15.50;;;;;11.25;59.44;101246.47;5082349;27;45359;-60
2021/10/28 05:01:57;;;;;;;;;19.50;18.25;;;;;11.20;59.54;101241.25;5082399;28;45298;-60
2021/10/28 05:04:24;;;;;;;;;15.50;14.00;;;;;11.21;59.48;101243.00;5082150;27;45224;-60
2021/10/28 05:06:49;;;;;;;;;14.50;14.50;;;;;11.20;59.43;101246.50;5082446;27;45472;-60
2021/10/28 05:09:18;;;;;;;;;18.25;17.00;;;;;11.19;59.54;101244.75;5082057;27;45335;-60
2021/10/28 05:11:46;;;;;;;;;16.75;15.50;;;;;11.17;59.53;101242.16;5082177;27;47063;-60
2021/10/28 05:14:12;;;;;;;;;16.75;15.00;;;;;11.17;59.57;101244.78;5081954;27;45166;-60
2021/10/28 05:16:37;;;;;;;;;18.25;17.00;;;;;11.17;59.48;101246.50;5082099;27;45381;-60
2021/10/28 05:19:03;;;;;;;;;21.25;20.00;;;;;11.17;59.49;101249.13;5081811;27;45441;-60
2021/10/28 05:21:28;;;;;;;;;15.25;12.25;;;;;11.16;59.58;101245.66;5081805;27;45892;-60
2021/10/28 05:23:54;;;;;;;;;15.00;14.00;;;;;11.16;59.49;101248.28;5081990;27;45370;-60
2021/10/28 05:26:19;;;;;;;;;17.00;14.00;;;;;11.14;59.68;101241.28;5082240;27;45415;-60
2021/10/28 05:28:44;;;;;;;;;16.75;16.50;;;;;11.15;59.54;101245.69;5082026;27;45485;-60
2021/10/28 05:31:10;;;;;;;;;21.25;19.00;;;;;11.11;59.50;101241.34;5093992;27;45617;-60
2021/10/28 05:33:35;;;;;;;;;15.75;12.75;;;;;11.11;59.70;101246.59;5081513;27;46445;-60
2021/10/28 05:36:01;;;;;;;;;22.50;17.00;;;;;11.10;59.71;101253.59;5081937;27;45235;-60
2021/10/28 05:38:26;;;;;;;;;20.25;18.00;;;;;11.06;59.51;101250.09;5080413;27;45306;-60
2021/10/28 05:40:52;;;;;;;;;16.50;13.75;;;;;11.08;59.58;101250.13;5081807;27;45357;-60
2021/10/28 05:43:17;;;;;;;;;18.75;18.75;;;;;11.01;59.93;101241.38;5081530;27;45373;-60
2021/10/28 05:45:44;;;;;;;;;17.25;16.50;;;;;11.04;59.74;101237.84;5081875;27;45343;-60
2021/10/28 05:48:09;;;;;;;;;19.75;18.25;;;;;11.02;59.88;101247.53;5081319;27;45457;-60
2021/10/28 05:50:35;;;;;;;;;21.00;19.00;;;;;11.00;59.72;101239.63;5087625;27;47156;-61
2021/10/28 05:53:01;;;;;;;;;21.50;20.50;;;;;10.99;59.89;101239.66;5087291;27;45255;-60
2021/10/28 05:55:27;;;;;;;;;18.75;18.00;;;;;10.95;60.04;101238.81;5081071;27;45289;-60
2021/10/28 05:57:53;;;;;;;;;19.00;16.00;;;;;10.95;59.96;101236.19;5081138;27;45358;-49
2021/10/28 06:00:20;;;;;;;;;18.75;17.00;;;;;10.93;59.92;101237.97;5081188;27;46898;-60
2021/10/28 06:02:46;;;;;;;;;21.75;19.25;;;;;10.93;59.95;101234.44;5080931;27;45488;-60
2021/10/28 06:05:12;;;;;;;;;20.75;16.75;;;;;10.92;60.03;101238.84;5081470;27;45318;-60
2021/10/28 06:07:38;;;;;;;;;20.50;19.50;;;;;10.91;60.12;101238.88;5081175;27;45603;-61
2021/10/28 06:10:04;;;;;;;;;24.00;17.50;;;;;10.91;59.96;101242.34;5081105;27;46688;-60
2021/10/28 06:12:38;;;;;;;;;23.75;20.75;;;;;10.88;60.12;101230.09;5080965;27;45232;-61
2021/10/28 06:15:06;;;;;;;;;19.75;18.00;;;;;10.90;60.07;101230.09;5079747;28;45274;-61
2021/10/28 06:17:35;;;;;;;;;20.50;20.00;;;;;10.87;59.99;101236.25;5080711;27;45556;-59
2021/10/28 06:20:02;;;;;;;;;22.00;20.25;;;;;10.83;60.22;101237.16;5080399;27;46049;-59
2021/10/28 06:22:29;;;;;;;;;23.75;19.75;;;;;10.83;60.25;101236.25;5080714;27;45432;-59
2021/10/28 06:24:56;;;;;;;;;17.75;17.75;;;;;10.82;60.12;101243.28;5081024;27;45273;-58
2021/10/28 06:27:21;;;;;;;;;24.25;21.75;;;;;10.80;60.11;101238.94;5080655;27;45251;-61
2021/10/28 06:29:47;;;;;;;;;24.50;21.00;;;;;10.78;60.33;101238.06;5089755;27;46309;-60
2021/10/28 06:32:13;;;;;;;;;22.75;21.50;;;;;10.73;60.29;101246.84;5084041;27;45193;-61
2021/10/28 06:34:42;;;;;;;;;20.75;19.25;;;;;10.70;60.57;101241.63;5080699;27;45292;-59
2021/10/28 06:37:08;;;;;;;;;19.00;18.75;;;;;10.69;60.49;101255.66;5080424;27;45536;-60
2021/10/28 06:39:34;;;;;;;;;19.00;18.75;;;;;10.67;60.23;101240.78;5080465;27;46540;-62
2021/10/28 06:41:59;;;;;;;;;28.50;23.25;;;;;10.67;60.22;101246.91;5079138;27;45256;-63
2021/10/28 06:44:25;;;;;;;;;18.75;17.50;;;;;10.65;60.43;101250.41;5080810;27;45714;-63
2021/10/28 06:46:51;;;;;;;;;19.75;18.50;;;;;10.65;60.50;101242.53;5080488;27;45413;-62
2021/10/28 06:49:18;;;;;;;;;21.50;19.00;;;;;10.64;60.39;101253.91;5080450;27;46094;-63
2021/10/28 06:51:44;;;;;;;;;22.75;21.50;;;;;10.62;60.47;101248.69;5092574;27;45255;-63
2021/10/28 07:02:20;;;;;;;;;20.75;19.25;;;;;10.61;60.49;101257.44;5088271;27;45360;-65
2021/10/28 07:04:47;;;;;;;;;23.25;22.25;;;;;10.60;60.30;101257.47;5100311;27;45239;-65
2021/10/28 07:07:13;;;;;;;;;18.75;17.00;;;;;10.59;60.36;101256.59;5099980;27;45461;-66
2021/10/28 07:09:43;;;;;;;;;20.25;17.50;;;;;10.60;60.16;101245.19;5099046;27;48598;-67
2021/10/28 07:14:35;;;;;;;;;20.50;20.50;;;;;10.59;60.36;101245.19;5100557;27;45219;-65
2021/10/28 07:32:15;;;;;;;;;22.75;17.50;;;;;10.53;60.49;101260.13;5085677;27;45335;-66
2021/10/28 07:35:01;;;;;;;;;20.00;18.50;;;;;10.51;60.69;101251.38;5079604;27;45491;-66
2021/10/28 08:16:22;;;;;;;;;41.25;35.00;;;;;10.88;61.09;101239.75;5099902;27;45346;-66
2021/10/28 08:23:35;;;;;;;;;33.50;32.50;;;;;10.97;61.11;101237.03;5103522;27;45794;-67
2021/10/28 08:28:48;;;;;;;;;39.00;34.00;;;;;11.09;60.99;101233.44;5103111;27;45244;-67
2021/10/28 08:31:18;;;;;;;;;30.50;26.00;;;;;11.11;61.12;101231.66;5095128;27;45304;-67
2021/10/28 08:33:45;;;;;;;;;26.25;26.25;;;;;11.15;61.19;101228.13;5082497;27;47066;-66
2021/10/28 08:36:11;;;;;;;;;26.50;22.75;;;;;11.22;61.11;101221.94;5082434;27;45278;-67
2021/10/28 08:38:39;;;;;;;;;25.75;25.50;;;;;11.32;61.10;101222.72;5082498;27;45154;-67
2021/10/28 08:41:11;;;;;;;;;26.50;25.75;;;;;11.33;61.28;101221.84;5082426;27;45518;-67
2021/10/28 08:43:43;;;;;;;;;23.75;23.50;;;;;11.43;61.10;101217.31;5082210;27;46195;-66
2021/10/28 08:46:10;;;;;;;;;20.00;17.50;;;;;11.52;61.18;101203.19;5082332;27;45408;-67
2021/10/28 08:48:38;;;;;;;;;27.50;23.50;;;;;11.61;60.79;101212.75;5082160;27;45248;-66
2021/10/28 08:53:43;;;;;;;;;28.00;26.50;;;;;11.75;61.05;101202.06;5083700;27;46057;-66
2021/10/28 08:56:22;;;;;;;;;22.75;22.50;;;;;11.86;61.04;101198.44;5082290;27;45310;-66
2021/10/28 09:29:15;;;;;;;;;20.25;18.75;;;;;13.30;60.87;101154.06;5101749;27;45258;-66
2021/10/28 09:46:10;;;;;;;;;18.25;17.00;;;;;14.40;60.66;101150.91;5081506;27;45467;-66
2021/10/28 09:51:03;;;;;;;;;18.50;16.50;;;;;14.79;60.52;101153.50;5092771;27;45157;-66
2021/10/28 09:53:35;;;;;;;;;19.25;18.50;;;;;14.95;60.75;101146.06;5083255;27;45238;-66
2021/10/28 09:58:46;;;;;;;;;20.25;19.00;;;;;15.24;60.45;101140.00;5089328;27;45431;-67
2021/10/28 10:01:31;;;;;;;;;16.75;16.75;;;;;15.43;60.32;101147.41;5101544;27;45199;-66
2021/10/28 10:04:00;;;;;;;;;19.50;17.25;;;;;15.54;60.03;101133.88;5101708;27;45435;-66
2021/10/28 10:06:27;;;;;;;;;13.25;12.00;;;;;15.66;59.80;101133.53;5101380;27;45430;-66
2021/10/28 10:08:54;;;;;;;;;26.00;24.75;;;;;15.85;60.06;101119.78;5101519;27;45474;-66
2021/10/28 10:11:25;;;;;;;;;19.00;18.50;;;;;16.02;59.67;101116.59;5101536;27;45422;-66
2021/10/28 10:13:51;;;;;;;;;16.50;15.25;;;;;16.16;59.74;101125.00;5101454;27;45424;-66
2021/10/28 10:16:17;;;;;;;;;20.00;17.00;;;;;16.30;59.49;101115.72;5101198;27;45333;-66
2021/10/28 10:18:48;;;;;;;;;17.75;15.75;;;;;16.46;59.24;101116.94;5101238;27;45440;-66
2021/10/28 10:21:29;;;;;;;;;16.75;15.75;;;;;16.57;59.12;101096.25;5099946;27;45378;-66
2021/10/28 10:24:45;;;;;;;;;15.75;14.25;;;;;16.78;59.06;101099.09;5101298;27;45292;-65
2021/10/28 11:21:54;;;;;;;;;10.50;10.25;;;;;18.89;56.49;101030.63;5100656;27;45307;-65
2021/10/28 11:32:45;;;;;;;;;16.00;14.25;;;;;19.32;55.73;101011.91;5082713;27;45310;-65
2021/10/28 12:20:25;;;;;;;;;13.00;11.75;;;;;21.44;53.95;100926.34;5103310;27;45234;-65
2021/10/28 15:30:16;;;;;;;;;5.00;5.00;;;;;23.68;46.59;100703.47;5106433;27;45324;-65
2021/10/28 15:40:48;;;;;;;;;5.50;5.50;;;;;23.08;46.56;100685.25;5086582;27;45370;-65
2021/10/28 16:23:17;;;;;;;;;12.50;8.25;;;;;20.78;46.74;100640.69;5106792;27;45424;-66
2021/10/28 16:25:43;;;;;;;;;9.25;9.25;;;;;20.70;46.97;100634.03;5106671;27;45319;-65
2021/10/28 16:28:08;;;;;;;;;6.25;6.25;;;;;20.57;47.07;100637.41;5106587;27;45425;-66
2021/10/28 16:30:34;;;;;;;;;8.50;6.75;;;;;20.50;47.24;100635.19;5103097;27;46103;-66
2021/10/28 16:33:00;;;;;;;;;8.00;7.25;;;;;20.39;46.84;100635.78;5086093;27;45350;-65
2021/10/28 16:35:25;;;;;;;;;9.50;6.75;;;;;20.28;46.89;100623.09;5086024;27;45477;-65
2021/10/28 16:37:51;;;;;;;;;9.25;8.75;;;;;20.20;47.32;100623.53;5085680;27;45407;-65
2021/10/28 16:40:17;;;;;;;;;7.25;7.00;;;;;20.12;47.27;100623.09;5084335;27;46228;-65
2021/10/28 16:42:42;;;;;;;;;13.00;12.50;;;;;20.04;47.23;100623.50;5082295;27;45330;-64
2021/10/28 16:45:09;;;;;;;;;7.50;7.25;;;;;19.93;47.52;100621.44;5082191;27;45236;-64
2021/10/28 16:47:35;;;;;;;;;6.00;6.00;;;;;19.84;47.17;100616.63;5082271;27;45252;-63
2021/10/28 16:50:01;;;;;;;;;10.00;10.00;;;;;19.78;47.11;100616.91;5083787;27;46637;-65
2021/10/28 16:52:26;;;;;;;;;6.25;5.50;;;;;19.68;47.59;100621.88;5092953;27;45312;-64
2021/10/28 16:54:52;;;;;;;;;8.00;7.00;;;;;19.56;47.51;100611.88;5082507;27;45321;-64
2021/10/28 16:57:17;;;;;;;;;9.25;9.25;;;;;19.49;47.71;100614.88;5082083;27;45336;-64
2021/10/28 16:59:43;;;;;;;;;7.25;7.25;;;;;19.44;47.69;100614.25;5082173;27;46011;-64
2021/10/28 17:02:08;;;;;;;;;13.00;9.50;;;;;19.38;47.51;100614.59;5081669;27;45322;-64
2021/10/28 17:04:34;;;;;;;;;14.25;9.00;;;;;19.30;47.78;100620.31;5082092;27;45697;-64
2021/10/28 17:06:59;;;;;;;;;10.25;10.00;;;;;19.21;47.40;100614.66;5082143;27;45306;-66
2021/10/28 17:09:24;;;;;;;;;10.75;9.75;;;;;19.12;47.65;100611.50;5081756;27;45980;-66
2021/10/28 17:11:50;;;;;;;;;8.00;7.25;;;;;19.05;47.59;100606.59;5081991;27;45310;-66
2021/10/28 17:14:16;;;;;;;;;10.25;9.50;;;;;19.00;47.88;100614.81;5082039;27;45289;-65
2021/10/28 17:16:46;;;;;;;;;11.00;9.50;;;;;18.92;47.49;100611.69;5081992;27;45343;-65
2021/10/28 17:19:12;;;;;;;;;11.00;9.00;;;;;18.86;47.83;100617.28;5081583;27;45440;-64
2021/10/28 17:21:38;;;;;;;;;13.00;11.75;;;;;18.78;47.60;100615.88;5081860;27;45381;-64
2021/10/28 17:24:07;;;;;;;;;10.75;8.00;;;;;18.69;47.92;100613.66;5081714;27;45393;-64
2021/10/28 17:26:33;;;;;;;;;10.00;9.00;;;;;18.64;47.78;100621.91;5081905;27;45433;-64
2021/10/28 17:29:02;;;;;;;;;11.50;8.75;;;;;18.59;48.07;100615.06;5083682;27;45412;-65
2021/10/28 17:31:29;;;;;;;;;9.50;8.00;;;;;18.50;48.09;100611.06;5092152;27;45464;-64
2021/10/28 17:33:56;;;;;;;;;16.50;11.00;;;;;18.46;48.15;100607.69;5081500;28;45442;-64
2021/10/28 17:36:22;;;;;;;;;14.00;10.75;;;;;18.39;48.40;100616.94;5081480;27;45489;-64
2021/10/28 17:38:47;;;;;;;;;10.00;9.50;;;;;18.38;48.34;100619.63;5081298;27;45430;-64
2021/10/28 17:41:13;;;;;;;;;13.50;10.00;;;;;18.29;48.40;100603.22;5081355;27;45307;-64
2021/10/28 17:43:43;;;;;;;;;14.50;13.00;;;;;18.27;48.14;100604.22;5081403;27;45255;-64
2021/10/28 17:46:10;;;;;;;;;9.75;7.00;;;;;18.21;48.45;100609.84;5081652;27;45359;-64
2021/10/28 17:48:36;;;;;;;;;13.25;11.25;;;;;18.14;48.61;100599.47;5081027;27;46357;-64
2021/10/28 17:51:01;;;;;;;;;11.50;10.75;;;;;18.10;48.49;100607.69;5092997;27;45277;-64
2021/10/28 17:53:27;;;;;;;;;14.75;12.00;;;;;18.07;48.60;100608.69;5083173;27;45297;-64
2021/10/28 17:55:52;;;;;;;;;13.25;13.25;;;;;18.01;48.62;100603.66;5081745;27;45209;-64
2021/10/28 17:58:18;;;;;;;;;12.50;10.25;;;;;17.97;48.73;100600.28;5079714;27;47912;-64
2021/10/28 18:00:44;;;;;;;;;15.25;9.75;;;;;17.94;48.87;100604.91;5081631;27;45212;-64
2021/10/28 18:03:09;;;;;;;;;12.25;12.25;;;;;17.90;48.90;100600.59;5081130;27;45227;-64
2021/10/28 18:05:36;;;;;;;;;11.25;10.50;;;;;17.85;48.91;100599.03;5081477;27;45625;-64
2021/10/28 18:08:03;;;;;;;;;10.75;10.75;;;;;17.83;48.86;100595.56;5081174;27;46488;-64
2021/10/28 18:10:29;;;;;;;;;18.50;16.75;;;;;17.77;48.89;100598.53;5080954;27;45349;-64
2021/10/28 18:12:54;;;;;;;;;16.75;16.25;;;;;17.75;49.18;100597.75;5080983;27;45346;-64
2021/10/28 18:15:20;;;;;;;;;16.00;15.50;;;;;17.71;48.97;100596.19;5081259;27;45470;-64
2021/10/28 18:17:45;;;;;;;;;15.00;13.25;;;;;17.69;48.89;100598.88;5080565;27;45437;-65
2021/10/28 18:20:11;;;;;;;;;16.00;13.75;;;;;17.64;49.17;100589.41;5079614;27;45265;-65
2021/10/28 18:22:40;;;;;;;;;13.00;12.25;;;;;17.62;49.16;100596.59;5080994;27;45341;-65
2021/10/28 18:25:07;;;;;;;;;12.00;11.75;;;;;17.57;49.11;100586.16;5081075;27;45538;-64
2021/10/28 18:27:33;;;;;;;;;14.75;13.50;;;;;17.54;49.47;100584.50;5080611;27;47004;-64
2021/10/28 18:29:59;;;;;;;;;16.00;15.50;;;;;17.53;49.12;100590.78;5091258;27;45342;-65
2021/10/28 18:32:26;;;;;;;;;11.75;11.75;;;;;17.48;49.18;100597.22;5099716;27;45353;-64
2021/10/28 18:34:51;;;;;;;;;15.25;13.00;;;;;17.47;49.36;100598.16;5101216;27;46412;-65
2021/10/28 18:37:20;;;;;;;;;11.75;9.50;;;;;17.45;49.54;100586.75;5099586;27;46234;-64
2021/10/28 18:39:45;;;;;;;;;13.75;12.75;;;;;17.41;49.33;100588.66;5099863;27;45432;-63
2021/10/28 18:42:10;;;;;;;;;16.00;13.50;;;;;17.37;49.47;100585.28;5098177;27;45958;-65
2021/10/28 18:44:36;;;;;;;;;13.00;13.00;;;;;17.35;49.36;100589.78;5100801;27;45431;-65
2021/10/28 18:47:01;;;;;;;;;12.50;11.00;;;;;17.33;49.46;100586.38;5088770;27;45400;-64
2021/10/28 18:49:27;;;;;;;;;17.00;14.00;;;;;17.30;49.60;100582.97;5080652;27;45272;-64
2021/10/28 18:51:52;;;;;;;;;12.25;12.25;;;;;17.28;49.62;100587.50;5099211;27;45412;-64
2021/10/28 18:54:18;;;;;;;;;23.25;20.25;;;;;17.26;49.36;100586.69;5101046;27;45309;-64
2021/10/28 18:56:48;;;;;;;;;10.75;10.75;;;;;17.22;49.76;100584.19;5100739;27;46123;-64
2021/10/28 18:59:15;;;;;;;;;18.50;18.00;;;;;17.19;49.68;100581.69;5100701;27;45283;-65
2021/10/28 19:01:41;;;;;;;;;26.50;23.25;;;;;17.18;49.73;100581.72;5100608;27;45406;-66
2021/10/28 19:04:06;;;;;;;;;19.00;18.25;;;;;17.15;49.72;100569.44;5098094;27;45600;-65
2021/10/28 19:06:32;;;;;;;;;19.75;16.25;;;;;17.14;49.95;100564.22;5100741;27;45278;-68
2021/10/28 19:08:57;;;;;;;;;14.75;14.25;;;;;17.10;49.87;100560.81;5100899;27;45326;-64
2021/10/28 19:11:25;;;;;;;;;16.25;15.75;;;;;17.10;49.84;100563.47;5099435;27;45228;-65
2021/10/28 19:13:51;;;;;;;;;17.75;15.25;;;;;17.08;49.64;100560.06;5100637;27;45310;-66
2021/10/28 19:16:17;;;;;;;;;13.75;13.75;;;;;17.07;49.96;100560.97;5093453;27;46300;-65
2021/10/28 19:18:44;;;;;;;;;16.25;13.25;;;;;17.04;49.79;100555.78;5079803;27;45501;-64
2021/10/28 19:21:11;;;;;;;;;81.50;63.50;;;;;17.01;49.83;100561.25;5079914;27;45297;-64
2021/10/28 19:23:38;;;;;;;;;17.50;16.00;;;;;17.00;49.76;100562.16;5080032;27;45516;-65
2021/10/28 19:26:05;;;;;;;;;14.00;14.00;;;;;16.94;49.86;100557.13;5079694;27;45916;-65
2021/10/28 19:28:32;;;;;;;;;22.75;18.25;;;;;16.90;49.95;100551.94;5079982;27;45204;-64
2021/10/28 19:33:35;;;;;;;;;17.50;16.75;;;;;16.81;49.94;100551.47;5079727;27;45213;-64
2021/10/28 19:36:03;;;;;;;;;20.00;17.25;;;;;16.77;50.18;100547.22;5080045;27;45329;-65
2021/10/28 19:38:45;;;;;;;;;14.75;14.75;;;;;16.73;50.21;100543.84;5078519;27;45340;-63
2021/10/28 19:41:29;;;;;;;;;21.50;20.50;;;;;16.62;49.77;100538.97;5079887;27;45485;-64
2021/10/28 19:46:49;;;;;;;;;17.00;14.50;;;;;16.57;50.57;100538.31;5023420;27;45476;-64
2021/10/28 19:49:15;;;;;;;;;20.75;20.00;;;;;16.52;50.28;100535.84;5079769;27;45180;-64
2021/10/28 19:51:42;;;;;;;;;19.25;16.25;;;;;16.48;50.52;100533.41;5093785;27;45421;-64
2021/10/28 19:54:11;;;;;;;;;17.75;17.00;;;;;16.44;50.46;100532.69;5079763;28;45264;-64
2021/10/28 19:56:37;;;;;;;;;19.75;17.00;;;;;16.40;50.58;100531.06;5079417;27;46189;-64
2021/10/28 19:59:02;;;;;;;;;20.50;19.25;;;;;16.36;50.48;100534.78;5078304;28;45277;-64
2021/10/28 20:15:01;;;;;;;;;18.00;16.50;;;;;16.05;50.71;100522.75;5097743;27;45484;-66
2021/10/28 20:20:21;;;;;;;;;13.00;12.50;;;;;15.97;51.03;100515.13;5103392;27;45435;-66
2021/10/28 20:22:49;;;;;;;;;14.75;12.50;;;;;15.93;51.29;100522.34;5103139;27;45334;-65